Minnesota Lake, Minnesota
Current Conditions -  °F | °C
As of 12:15 AM on Thursday 29 Jan 2015 (Local Time) from KACQ Reporting Station
Haze Haze  
Wind Chill: -6°   Ceiling: 400
Heat Index:   Visibility: 2.5mi
Dew Point:   Wind: 14mph
Humidity: 100%   Direction: 330°NNW
Pressure: 29.88"   Gusts: NA
Location:  43.84°N, 93.83°W
Report Text: KACQ 290615Z AUTO 33012KT 2 1/2SM BR BKN004 OVC009 00/00 A2988 RMK AO2
Loading
Personal Weather Stations






























Interactive Weather Map New forecast layout! Learn more

10-Day Weather Forecast

Advertisements
Track Severe Weather on mobile